Time;durP1;ratioP1;P1;durP2;ratioP2;P2;SDS_P1;SDS_P2;PMS_P1;PMS_P2;Temp;Humidity;BMP_temperature;BMP_pressure;BME280_temperature;BME280_humidity;BME280_pressure;Samples;Min_cycle;Max_cycle;Signal;HPM_P1;HPM_P2
2022/12/10 00:01:26;;;;;;;31.50;20.55;;;3.20;93.20;;;;;;5111765;28;20176;-66
2022/12/10 00:03:54;;;;;;;25.27;17.42;;;3.20;93.20;;;;;;5111743;28;20216;-65
2022/12/10 00:06:25;;;;;;;33.30;21.20;;;3.20;93.30;;;;;;5091863;28;20652;-66
2022/12/10 00:08:53;;;;;;;28.90;19.95;;;3.20;93.30;;;;;;5092278;28;20548;-66
2022/12/10 00:11:23;;;;;;;25.63;18.23;;;3.20;93.30;;;;;;5113091;28;20200;-66
2022/12/10 00:13:51;;;;;;;32.35;19.33;;;3.20;93.20;;;;;;5116144;28;20197;-66
2022/12/10 00:16:21;;;;;;;28.02;18.85;;;3.20;93.20;;;;;;5096148;28;20556;-66
2022/12/10 00:18:49;;;;;;;26.60;18.45;;;3.20;93.20;;;;;;5095348;28;20292;-66
2022/12/10 00:21:18;;;;;;;30.38;18.20;;;3.20;93.10;;;;;;5096363;28;20193;-66
2022/12/10 00:23:48;;;;;;;26.38;18.77;;;3.20;93.10;;;;;;5095338;28;20193;-66
2022/12/10 00:26:18;;;;;;;30.27;19.38;;;3.20;93.20;;;;;;5110473;28;20184;-66
2022/12/10 00:28:47;;;;;;;28.40;17.40;;;3.10;93.20;;;;;;5115800;28;20273;-66
2022/12/10 00:31:16;;;;;;;29.65;18.00;;;3.20;93.20;;;;;;5114928;28;20539;-66
2022/12/10 00:33:45;;;;;;;27.90;17.98;;;3.20;93.20;;;;;;5115657;28;20195;-66
2022/12/10 00:36:15;;;;;;;28.77;19.48;;;3.20;93.20;;;;;;5098717;28;20207;-66
2022/12/10 00:38:43;;;;;;;34.22;18.10;;;3.20;93.40;;;;;;5095178;28;20217;-66
2022/12/10 00:41:13;;;;;;;23.55;16.95;;;3.20;93.30;;;;;;5110162;28;20184;-66
2022/12/10 00:43:41;;;;;;;29.85;18.60;;;3.10;93.30;;;;;;5115595;28;20188;-66
2022/12/10 00:46:10;;;;;;;23.48;15.57;;;3.10;93.50;;;;;;5099837;28;20651;-66
2022/12/10 00:48:37;;;;;;;29.80;18.60;;;3.10;93.60;;;;;;5103927;28;20281;-66
2022/12/10 00:51:12;;;;;;;28.02;18.05;;;3.10;93.60;;;;;;5114974;28;20188;-66
2022/12/10 00:53:43;;;;;;;32.60;18.65;;;3.10;93.50;;;;;;5105267;28;20230;-66
2022/12/10 00:56:13;;;;;;;31.70;18.20;;;3.10;93.50;;;;;;5094243;28;20191;-66
2022/12/10 00:58:41;;;;;;;23.92;16.60;;;3.10;93.50;;;;;;5102920;28;20185;-66
2022/12/10 01:01:11;;;;;;;30.13;19.35;;;3.10;93.60;;;;;;5114816;28;20189;-66
2022/12/10 01:03:39;;;;;;;27.08;19.10;;;3.10;93.60;;;;;;5106401;28;20217;-66
2022/12/10 01:06:12;;;;;;;28.55;18.15;;;3.10;93.50;;;;;;5093906;28;20192;-66
2022/12/10 01:08:40;;;;;;;33.20;21.48;;;3.10;93.40;;;;;;5101404;28;20247;-66
2022/12/10 01:11:08;;;;;;;31.15;17.33;;;3.10;93.50;;;;;;5094653;28;20731;-66
2022/12/10 01:13:41;;;;;;;30.73;17.77;;;3.10;93.50;;;;;;5094397;28;20300;-66
2022/12/10 01:16:10;;;;;;;23.27;16.92;;;3.10;93.40;;;;;;5099522;28;20180;-66
2022/12/10 01:18:38;;;;;;;27.30;17.20;;;3.10;93.40;;;;;;5114674;28;20200;-66
2022/12/10 01:21:07;;;;;;;27.85;17.63;;;3.10;93.40;;;;;;5109528;28;20665;-66
2022/12/10 01:23:35;;;;;;;26.60;15.73;;;3.00;93.30;;;;;;5094018;28;20197;-67
2022/12/10 01:26:03;;;;;;;28.52;16.70;;;3.00;93.30;;;;;;5097292;28;20181;-66
2022/12/10 01:28:31;;;;;;;30.05;19.42;;;3.10;93.30;;;;;;5114182;28;20661;-66
2022/12/10 01:31:04;;;;;;;28.20;17.95;;;3.10;93.40;;;;;;5111612;28;20636;-66
2022/12/10 01:33:31;;;;;;;23.40;15.30;;;3.10;93.60;;;;;;5093826;28;20191;-66
2022/12/10 01:36:03;;;;;;;31.50;18.85;;;3.10;93.50;;;;;;5098641;28;20184;-66
2022/12/10 01:38:30;;;;;;;30.30;16.90;;;3.10;93.60;;;;;;5114193;28;20257;-66
2022/12/10 01:40:58;;;;;;;26.25;17.42;;;3.10;93.80;;;;;;5108521;28;20200;-66
2022/12/10 01:43:25;;;;;;;29.98;17.80;;;3.20;93.90;;;;;;5093466;28;20189;-66
2022/12/10 01:45:53;;;;;;;27.48;16.58;;;3.20;93.80;;;;;;5112721;28;20272;-66
2022/12/10 01:48:22;;;;;;;28.52;18.08;;;3.20;93.80;;;;;;5113726;28;20299;-66
2022/12/10 01:50:49;;;;;;;34.75;19.05;;;3.20;93.80;;;;;;5094614;28;20189;-66
2022/12/10 01:53:17;;;;;;;25.27;16.08;;;3.20;93.70;;;;;;5093372;28;20193;-66
2022/12/10 01:55:49;;;;;;;25.90;15.98;;;3.20;93.80;;;;;;5113307;28;20271;-66
2022/12/10 01:58:20;;;;;;;28.10;17.80;;;3.20;93.70;;;;;;5113622;28;20234;-66
2022/12/10 02:00:58;;;;;;;29.15;17.40;;;3.20;93.60;;;;;;5093363;28;20200;-66
2022/12/10 02:03:37;;;;;;;33.40;18.70;;;3.20;93.60;;;;;;5092923;28;20225;-66
2022/12/10 02:06:17;;;;;;;34.30;20.55;;;3.20;93.50;;;;;;5093079;28;20199;-66
2022/12/10 02:08:55;;;;;;;26.33;16.65;;;3.20;93.30;;;;;;5087865;28;20243;-66
2022/12/10 02:11:29;;;;;;;30.38;18.88;;;3.20;93.60;;;;;;5111960;28;20194;-66
2022/12/10 02:14:03;;;;;;;34.45;20.73;;;3.20;93.70;;;;;;5092344;28;20354;-66
2022/12/10 02:16:35;;;;;;;31.25;16.95;;;3.20;93.90;;;;;;5092513;28;20195;-66
2022/12/10 02:19:15;;;;;;;27.33;16.90;;;3.20;93.80;;;;;;5112055;28;20650;-66
2022/12/10 02:21:46;;;;;;;29.58;16.85;;;3.20;93.80;;;;;;5112303;28;20196;-65
2022/12/10 02:24:19;;;;;;;32.20;19.42;;;3.20;93.80;;;;;;5092968;28;20220;-66
2022/12/10 02:26:50;;;;;;;30.65;18.27;;;3.20;93.90;;;;;;5098924;28;20184;-66
2022/12/10 02:29:21;;;;;;;28.17;17.77;;;3.20;93.80;;;;;;5091365;28;20235;-67
2022/12/10 02:31:53;;;;;;;27.40;18.15;;;3.20;93.80;;;;;;5104425;28;20196;-66
2022/12/10 02:34:22;;;;;;;24.63;15.73;;;3.20;93.90;;;;;;5112242;28;20643;-66
2022/12/10 02:36:54;;;;;;;29.05;17.90;;;3.20;94.00;;;;;;5097534;28;20238;-66
2022/12/10 02:39:26;;;;;;;25.23;16.73;;;3.20;94.00;;;;;;5092358;28;20196;-66
2022/12/10 02:41:56;;;;;;;28.90;16.88;;;3.20;93.90;;;;;;5106974;28;20642;-66
2022/12/10 02:44:28;;;;;;;34.60;19.17;;;3.20;94.00;;;;;;5113050;28;20188;-66
2022/12/10 02:46:57;;;;;;;28.58;16.50;;;3.20;94.00;;;;;;5101197;28;20251;-66
2022/12/10 02:49:26;;;;;;;30.83;18.77;;;3.20;94.00;;;;;;5111510;28;20565;-66
2022/12/10 02:51:53;;;;;;;26.83;17.08;;;3.20;94.00;;;;;;5112782;28;20191;-66
2022/12/10 02:54:38;;;;;;;28.77;17.52;;;3.20;94.10;;;;;;5112088;28;20272;-66
2022/12/10 02:57:15;;;;;;;27.33;18.08;;;3.20;94.00;;;;;;5113068;28;20665;-66
2022/12/10 02:59:57;;;;;;;26.00;17.42;;;3.20;94.00;;;;;;5096937;28;20192;-66
2022/12/10 03:02:34;;;;;;;30.50;16.60;;;3.20;93.90;;;;;;5093357;28;20192;-66
2022/12/10 03:05:06;;;;;;;25.05;16.25;;;3.20;94.00;;;;;;5092040;28;20315;-66
2022/12/10 03:07:39;;;;;;;22.45;15.18;;;3.20;94.00;;;;;;5097735;28;20214;-66
2022/12/10 03:10:15;;;;;;;24.73;18.25;;;3.20;94.00;;;;;;5112571;28;20198;-66
2022/12/10 03:12:46;;;;;;;27.80;17.42;;;3.20;94.00;;;;;;5105647;28;20181;-66
2022/12/10 03:15:17;;;;;;;32.83;17.38;;;3.20;94.00;;;;;;5092209;28;20189;-66
2022/12/10 03:17:46;;;;;;;25.02;16.15;;;3.20;93.90;;;;;;5098173;28;20284;-66
2022/12/10 03:20:16;;;;;;;30.27;17.83;;;3.10;94.00;;;;;;5112664;28;20207;-66
2022/12/10 03:22:47;;;;;;;26.45;16.02;;;3.10;94.10;;;;;;5106225;28;20185;-66
2022/12/10 03:25:18;;;;;;;25.25;18.35;;;3.00;94.20;;;;;;5092450;28;20234;-66
2022/12/10 03:27:49;;;;;;;28.13;17.38;;;3.00;94.30;;;;;;5107402;28;20556;-66
2022/12/10 03:30:18;;;;;;;27.73;16.52;;;3.00;94.50;;;;;;5112306;28;20665;-66
2022/12/10 03:32:46;;;;;;;30.65;18.27;;;3.10;94.50;;;;;;5096886;28;20196;-67
2022/12/10 03:35:15;;;;;;;28.95;15.73;;;3.10;94.30;;;;;;5092122;28;20197;-66
2022/12/10 03:37:43;;;;;;;30.45;19.00;;;3.10;94.40;;;;;;5105125;28;20188;-68
2022/12/10 03:40:12;;;;;;;33.97;20.02;;;3.10;94.40;;;;;;5110305;28;20547;-66
2022/12/10 03:42:40;;;;;;;35.13;20.10;;;3.10;94.50;;;;;;5099159;28;20292;-66
2022/12/10 03:45:08;;;;;;;29.40;20.35;;;3.10;94.60;;;;;;5092085;28;20227;-66
2022/12/10 03:47:37;;;;;;;30.23;17.27;;;3.00;94.40;;;;;;5110188;28;20638;-66
2022/12/10 03:50:05;;;;;;;28.73;17.38;;;3.10;94.40;;;;;;5116257;28;20579;-66
2022/12/10 03:52:32;;;;;;;32.40;17.17;;;3.10;94.00;;;;;;5101129;28;20191;-66
2022/12/10 03:54:59;;;;;;;27.30;18.10;;;3.10;94.10;;;;;;5103004;28;20197;-66
2022/12/10 03:57:26;;;;;;;27.85;17.85;;;3.10;94.00;;;;;;5115546;28;20193;-66
2022/12/10 03:59:53;;;;;;;29.25;16.77;;;3.20;94.10;;;;;;5108708;28;20185;-66
2022/12/10 04:02:21;;;;;;;28.75;16.95;;;3.20;94.20;;;;;;5095809;28;20250;-67
2022/12/10 04:04:49;;;;;;;28.27;17.67;;;3.20;94.40;;;;;;5100337;28;20215;-66
2022/12/10 04:07:17;;;;;;;24.58;15.57;;;3.20;94.30;;;;;;5116020;28;20234;-67
2022/12/10 04:09:44;;;;;;;29.92;17.65;;;3.20;94.40;;;;;;5111340;28;20679;-67
2022/12/10 04:12:11;;;;;;;27.83;17.15;;;3.20;94.30;;;;;;5095609;28;20231;-66
2022/12/10 04:17:23;;;;;;;25.77;16.35;;;3.20;94.20;;;;;;5115932;28;20194;-66
2022/12/10 04:19:52;;;;;;;26.35;17.48;;;3.20;94.20;;;;;;5111481;28;20193;-67
2022/12/10 04:27:49;;;;;;;27.25;17.45;;;3.30;94.50;;;;;;5095413;28;20220;-66
2022/12/10 04:30:18;;;;;;;28.05;16.48;;;3.30;94.60;;;;;;5101101;28;20184;-66
2022/12/10 04:32:45;;;;;;;25.58;16.30;;;3.30;94.50;;;;;;5104543;28;20196;-66
2022/12/10 04:35:14;;;;;;;25.58;16.80;;;3.30;94.50;;;;;;5099891;28;20184;-66
2022/12/10 04:37:42;;;;;;;27.05;17.35;;;3.30;94.40;;;;;;5115839;28;20192;-66
2022/12/10 04:40:11;;;;;;;25.88;16.38;;;3.30;94.30;;;;;;5110833;28;20215;-66
2022/12/10 04:42:38;;;;;;;25.92;16.42;;;3.30;94.30;;;;;;5095362;28;20586;-66
2022/12/10 04:45:06;;;;;;;22.35;15.60;;;3.30;94.20;;;;;;5097961;28;20604;-66
2022/12/10 04:47:34;;;;;;;25.52;17.13;;;3.30;94.10;;;;;;5115400;28;20192;-66
2022/12/10 04:50:01;;;;;;;26.58;16.30;;;3.30;94.10;;;;;;5111830;28;20597;-66
2022/12/10 04:52:29;;;;;;;26.58;16.25;;;3.30;94.10;;;;;;5094671;28;20193;-66
2022/12/10 04:54:57;;;;;;;27.38;17.63;;;3.30;94.20;;;;;;5095312;28;20207;-66
2022/12/10 04:57:24;;;;;;;27.10;17.88;;;3.30;94.30;;;;;;5114691;28;20192;-66
2022/12/10 04:59:51;;;;;;;27.10;15.98;;;3.30;94.30;;;;;;5113407;28;20230;-66
2022/12/10 05:02:18;;;;;;;24.73;16.35;;;3.30;94.10;;;;;;5115191;28;20199;-66
2022/12/10 05:04:46;;;;;;;25.13;16.42;;;3.30;94.10;;;;;;5113655;28;20308;-66
2022/12/10 05:07:13;;;;;;;26.88;15.48;;;3.30;94.10;;;;;;5094472;28;20220;-66
2022/12/10 05:09:41;;;;;;;27.05;16.33;;;3.30;94.10;;;;;;5094468;28;20227;-66
2022/12/10 05:12:09;;;;;;;25.23;15.68;;;3.30;94.30;;;;;;5103121;28;20193;-66
2022/12/10 05:14:36;;;;;;;28.17;17.27;;;3.30;94.40;;;;;;5094783;28;20189;-66
2022/12/10 05:17:03;;;;;;;23.75;17.05;;;3.30;94.40;;;;;;5094408;28;20193;-66
2022/12/10 05:19:30;;;;;;;28.33;17.27;;;3.30;94.70;;;;;;5105876;28;20192;-66
2022/12/10 05:24:44;;;;;;;25.67;15.63;;;3.30;94.40;;;;;;5102385;28;20192;-66
2022/12/10 05:27:11;;;;;;;25.50;18.05;;;3.30;94.30;;;;;;5114522;28;20193;-66
2022/12/10 05:29:38;;;;;;;28.67;18.65;;;3.30;94.20;;;;;;5102331;28;20213;-66
2022/12/10 05:32:09;;;;;;;26.08;17.80;;;3.30;94.30;;;;;;5093874;28;20274;-65
2022/12/10 05:34:36;;;;;;;30.55;17.35;;;3.30;94.30;;;;;;5104929;28;20189;-66
2022/12/10 05:37:03;;;;;;;28.05;17.63;;;3.30;94.50;;;;;;5114382;28;20195;-66
2022/12/10 05:39:30;;;;;;;30.17;18.73;;;3.40;94.30;;;;;;5104171;28;20189;-66
2022/12/10 05:41:59;;;;;;;26.77;17.50;;;3.40;94.20;;;;;;5093864;28;20647;-66
2022/12/10 05:44:26;;;;;;;30.38;17.33;;;3.40;94.10;;;;;;5102010;28;20581;-66
2022/12/10 05:46:53;;;;;;;30.15;18.20;;;3.40;94.20;;;;;;5114221;28;20584;-66
2022/12/10 05:49:20;;;;;;;24.67;15.60;;;3.40;94.20;;;;;;5106372;28;20208;-68
2022/12/10 05:51:48;;;;;;;28.33;17.42;;;3.40;94.30;;;;;;5093722;28;20714;-66
2022/12/10 05:54:15;;;;;;;27.48;18.42;;;3.40;94.30;;;;;;5094804;28;20271;-66
2022/12/10 05:56:42;;;;;;;22.27;15.88;;;3.40;94.40;;;;;;5093659;28;20242;-66
2022/12/10 05:59:11;;;;;;;28.25;17.02;;;3.40;94.30;;;;;;5105670;28;20195;-66
2022/12/10 06:01:39;;;;;;;24.95;16.45;;;3.40;94.30;;;;;;5113879;28;20644;-66
2022/12/10 06:04:06;;;;;;;23.70;15.90;;;3.40;94.30;;;;;;5101806;28;20778;-66
2022/12/10 06:06:36;;;;;;;29.48;15.65;;;3.40;94.00;;;;;;5093509;28;20200;-66
2022/12/10 06:09:04;;;;;;;25.77;16.67;;;3.40;94.10;;;;;;5102608;28;20573;-66
2022/12/10 06:11:31;;;;;;;25.63;15.45;;;3.40;94.40;;;;;;5113551;28;20369;-66
2022/12/10 06:13:59;;;;;;;25.45;15.57;;;3.40;94.40;;;;;;5104292;28;20540;-66
2022/12/10 06:16:28;;;;;;;23.58;16.48;;;3.40;94.50;;;;;;5093074;28;20196;-66
2022/12/10 06:18:56;;;;;;;26.63;17.20;;;3.30;94.40;;;;;;5100880;28;20184;-66
2022/12/10 06:21:23;;;;;;;23.67;16.02;;;3.30;94.20;;;;;;5108145;28;20186;-66
2022/12/10 06:23:53;;;;;;;29.65;15.05;;;3.30;94.20;;;;;;5093129;28;20197;-66
2022/12/10 06:26:22;;;;;;;27.20;14.93;;;3.30;94.20;;;;;;5096628;28;20647;-66
2022/12/10 06:28:50;;;;;;;26.77;16.10;;;3.30;94.30;;;;;;5113321;28;20220;-66
2022/12/10 06:31:17;;;;;;;26.98;16.70;;;3.30;94.40;;;;;;5110064;28;20204;-66
2022/12/10 06:33:46;;;;;;;25.52;17.42;;;3.30;94.40;;;;;;5092870;28;20238;-66
2022/12/10 06:36:15;;;;;;;28.33;18.35;;;3.30;94.40;;;;;;5094289;28;20193;-66
2022/12/10 06:38:43;;;;;;;29.73;16.35;;;3.30;94.40;;;;;;5113158;28;20195;-66
2022/12/10 06:41:14;;;;;;;26.90;16.00;;;3.30;94.40;;;;;;5111704;28;20192;-66
2022/12/10 06:43:42;;;;;;;29.05;18.13;;;3.30;94.50;;;;;;5092746;28;20662;-66
2022/12/10 06:46:11;;;;;;;26.95;16.65;;;3.20;94.40;;;;;;5092743;28;20366;-66
2022/12/10 06:48:38;;;;;;;28.45;16.85;;;3.20;94.50;;;;;;5104342;28;20208;-66
2022/12/10 06:51:08;;;;;;;34.33;19.83;;;3.20;94.90;;;;;;5092608;28;20195;-66
2022/12/10 06:53:37;;;;;;;29.40;17.55;;;3.20;94.70;;;;;;5092569;28;20196;-66
2022/12/10 06:56:05;;;;;;;30.85;18.45;;;3.20;94.80;;;;;;5112367;28;20188;-66
2022/12/10 06:58:34;;;;;;;30.50;21.05;;;3.20;94.70;;;;;;5113076;28;20233;-66
2022/12/10 07:01:04;;;;;;;27.95;18.60;;;3.20;94.70;;;;;;5094025;28;20181;-66
2022/12/10 07:03:31;;;;;;;37.47;20.23;;;3.20;94.60;;;;;;5092257;28;20224;-66
2022/12/10 07:05:59;;;;;;;32.00;21.75;;;3.20;94.60;;;;;;5109311;28;20181;-66
2022/12/10 07:08:28;;;;;;;32.28;19.60;;;3.20;94.50;;;;;;5112975;28;20192;-66
2022/12/10 07:10:55;;;;;;;31.23;21.52;;;3.20;94.70;;;;;;5095912;28;20191;-67
2022/12/10 07:13:25;;;;;;;32.90;20.10;;;3.20;94.70;;;;;;5092890;28;20196;-66
2022/12/10 07:15:52;;;;;;;31.02;19.55;;;3.20;94.70;;;;;;5107706;28;20180;-66
2022/12/10 07:18:19;;;;;;;36.10;22.38;;;3.20;94.90;;;;;;5112829;28;20191;-66
2022/12/10 07:20:46;;;;;;;34.83;21.13;;;3.20;94.90;;;;;;5094673;28;20250;-66
2022/12/10 07:23:14;;;;;;;34.55;19.70;;;3.30;94.80;;;;;;5094268;28;20193;-66
2022/12/10 07:25:42;;;;;;;30.25;20.30;;;3.30;94.70;;;;;;5096792;28;20192;-66
2022/12/10 07:28:09;;;;;;;31.77;18.10;;;3.30;94.80;;;;;;5096882;28;20227;-66
2022/12/10 07:30:37;;;;;;;33.30;19.55;;;3.30;94.90;;;;;;5112852;28;20569;-66
2022/12/10 07:33:04;;;;;;;30.98;18.80;;;3.30;94.90;;;;;;5108486;28;20264;-66
2022/12/10 07:35:31;;;;;;;32.92;21.63;;;3.30;95.00;;;;;;5096565;28;20200;-66
2022/12/10 07:37:59;;;;;;;32.13;19.27;;;3.40;95.10;;;;;;5102604;28;20188;-66
2022/12/10 07:40:26;;;;;;;32.08;18.30;;;3.40;95.00;;;;;;5116682;28;20199;-66
2022/12/10 07:42:55;;;;;;;30.15;17.15;;;3.40;94.90;;;;;;5110886;28;20239;-66
2022/12/10 07:45:22;;;;;;;30.08;16.60;;;3.40;94.90;;;;;;5096056;28;20272;-66
2022/12/10 07:47:50;;;;;;;28.00;17.60;;;3.40;94.90;;;;;;5099928;28;20592;-66
2022/12/10 07:50:17;;;;;;;28.52;16.30;;;3.40;94.90;;;;;;5103997;28;20217;-66
2022/12/10 07:52:44;;;;;;;23.13;15.20;;;3.50;95.10;;;;;;5094868;28;20189;-66
2022/12/10 07:55:17;;;;;;;22.73;15.02;;;3.50;95.10;;;;;;5095498;28;20192;-66
2022/12/10 07:57:44;;;;;;;22.63;14.75;;;3.50;94.90;;;;;;5095821;28;20195;-66
2022/12/10 08:00:14;;;;;;;27.92;16.42;;;3.50;94.90;;;;;;5097856;28;20185;-66
2022/12/10 08:02:42;;;;;;;27.77;17.83;;;3.60;95.00;;;;;;5095394;28;20193;-66
2022/12/10 08:05:09;;;;;;;29.73;15.70;;;3.60;95.00;;;;;;5111782;28;20255;-66
2022/12/10 08:07:37;;;;;;;23.95;16.42;;;3.60;95.00;;;;;;5099186;28;20685;-66
2022/12/10 08:10:07;;;;;;;25.63;16.15;;;3.60;94.80;;;;;;5094802;28;20227;-66
2022/12/10 08:12:34;;;;;;;25.65;14.57;;;3.70;94.90;;;;;;5095228;28;20201;-66
2022/12/10 08:15:02;;;;;;;24.13;15.70;;;3.70;94.80;;;;;;5094751;28;20246;-66
2022/12/10 08:17:31;;;;;;;22.40;15.05;;;3.70;94.90;;;;;;5112679;28;20304;-66
2022/12/10 08:19:58;;;;;;;21.30;14.07;;;3.80;94.80;;;;;;5097591;28;20185;-66
2022/12/10 08:22:25;;;;;;;24.52;15.60;;;3.80;94.80;;;;;;5094866;28;20185;-67
2022/12/10 08:24:53;;;;;;;23.52;15.35;;;3.90;94.90;;;;;;5094741;28;20189;-66
2022/12/10 08:27:25;;;;;;;23.10;15.52;;;4.00;94.80;;;;;;5099125;28;20184;-66
2022/12/10 08:29:52;;;;;;;17.42;13.55;;;4.00;94.60;;;;;;5102142;28;20216;-67
2022/12/10 08:32:20;;;;;;;22.27;15.00;;;4.10;94.30;;;;;;5094108;28;20258;-67
2022/12/10 08:34:48;;;;;;;21.27;13.90;;;4.10;94.20;;;;;;5111813;28;20188;-66
2022/12/10 08:37:30;;;;;;;19.17;13.68;;;4.10;93.90;;;;;;5101987;28;20184;-66
2022/12/10 08:40:00;;;;;;;20.85;13.93;;;4.20;93.80;;;;;;5094704;28;20192;-66
2022/12/10 08:42:28;;;;;;;22.00;14.77;;;4.20;93.70;;;;;;5095131;28;20204;-66
2022/12/10 08:44:56;;;;;;;21.40;13.13;;;4.20;93.50;;;;;;5097843;28;20186;-66
2022/12/10 08:47:23;;;;;;;22.13;15.48;;;4.20;93.30;;;;;;5094577;28;20239;-66
2022/12/10 08:49:53;;;;;;;23.05;16.40;;;4.20;93.60;;;;;;5100784;28;20227;-66
2022/12/10 08:52:21;;;;;;;24.60;15.55;;;4.10;93.20;;;;;;5102055;28;20199;-66
2022/12/10 08:54:48;;;;;;;22.30;14.25;;;4.10;93.30;;;;;;5111769;28;20639;-66
2022/12/10 08:57:16;;;;;;;24.35;15.52;;;4.10;93.20;;;;;;5111092;28;20188;-66
2022/12/10 08:59:44;;;;;;;23.50;14.80;;;4.00;93.20;;;;;;5105955;28;20211;-66
2022/12/10 09:02:12;;;;;;;26.70;16.20;;;4.00;93.50;;;;;;5094051;28;20196;-66
2022/12/10 09:04:42;;;;;;;21.38;15.65;;;4.00;93.50;;;;;;5097386;28;20263;-66
2022/12/10 09:07:11;;;;;;;26.52;16.90;;;4.00;93.50;;;;;;5094640;28;20271;-66
2022/12/10 09:09:38;;;;;;;25.95;16.67;;;4.10;93.60;;;;;;5109178;28;20223;-66
2022/12/10 09:12:07;;;;;;;25.23;17.63;;;4.10;93.40;;;;;;5096148;28;20192;-66
2022/12/10 09:14:35;;;;;;;25.27;14.95;;;4.10;93.50;;;;;;5093944;28;20639;-67
2022/12/10 09:17:06;;;;;;;27.65;16.52;;;4.10;93.50;;;;;;5106105;28;20185;-66
2022/12/10 09:19:33;;;;;;;24.98;15.73;;;4.10;93.40;;;;;;5109616;28;20286;-67
2022/12/10 09:22:01;;;;;;;24.33;15.70;;;4.10;93.30;;;;;;5096691;28;20662;-66
2022/12/10 09:24:29;;;;;;;26.10;16.65;;;4.00;93.30;;;;;;5106891;28;20181;-66
2022/12/10 09:26:56;;;;;;;24.30;15.75;;;4.00;93.50;;;;;;5094390;28;20233;-66
2022/12/10 09:29:23;;;;;;;22.60;13.65;;;4.00;93.50;;;;;;5094343;28;20260;-66
2022/12/10 09:31:51;;;;;;;21.20;14.65;;;4.00;93.50;;;;;;5098373;28;20715;-66
2022/12/10 09:34:19;;;;;;;28.65;17.85;;;4.00;93.40;;;;;;5101232;28;20197;-66
2022/12/10 09:36:49;;;;;;;21.55;14.15;;;4.00;93.50;;;;;;5099155;28;20242;-66
2022/12/10 09:39:18;;;;;;;21.52;14.60;;;4.10;93.60;;;;;;5092656;28;20219;-66
2022/12/10 09:42:19;;;;;;;23.98;15.52;;;4.00;93.50;;;;;;5109699;28;20199;-65
2022/12/10 09:44:58;;;;;;;24.48;16.23;;;4.00;93.50;;;;;;5109860;28;20204;-66
2022/12/10 09:47:41;;;;;;;34.28;18.13;;;4.10;93.50;;;;;;5100222;28;20185;-66
2022/12/10 09:50:17;;;;;;;32.70;15.85;;;4.10;93.60;;;;;;5090629;28;20246;-66
2022/12/10 09:52:47;;;;;;;29.25;15.82;;;4.10;93.60;;;;;;5091922;28;20192;-66
2022/12/10 09:55:18;;;;;;;33.58;18.08;;;4.10;93.50;;;;;;5109408;28;20180;-66
2022/12/10 09:57:49;;;;;;;31.40;18.23;;;4.10;93.40;;;;;;5097723;28;20627;-66
2022/12/10 10:00:23;;;;;;;30.95;19.95;;;4.10;93.60;;;;;;5102072;28;20188;-66
2022/12/10 10:02:51;;;;;;;31.83;18.65;;;4.10;93.40;;;;;;5102374;28;20669;-66
2022/12/10 10:05:23;;;;;;;31.50;19.92;;;4.10;93.50;;;;;;5100035;28;20663;-66
2022/12/10 10:07:54;;;;;;;31.80;19.65;;;4.10;93.50;;;;;;5108319;28;20224;-66
2022/12/10 10:10:25;;;;;;;27.77;18.38;;;4.10;93.50;;;;;;5093073;28;20209;-66
2022/12/10 10:12:58;;;;;;;32.03;18.40;;;4.10;93.40;;;;;;5093471;28;20240;-66
2022/12/10 10:15:33;;;;;;;33.90;20.52;;;4.20;93.20;;;;;;5094002;28;20234;-66
2022/12/10 10:18:07;;;;;;;33.35;18.88;;;4.20;93.30;;;;;;5082084;28;20235;-66
2022/12/10 10:20:36;;;;;;;36.10;19.63;;;4.20;93.40;;;;;;5092587;28;20188;-67
2022/12/10 10:23:03;;;;;;;31.52;19.38;;;4.20;93.30;;;;;;5092907;28;20578;-67
2022/12/10 10:25:30;;;;;;;37.67;21.45;;;4.20;93.40;;;;;;5092319;28;20193;-66
2022/12/10 10:27:59;;;;;;;29.17;18.70;;;4.20;93.60;;;;;;5091476;28;20654;-66
2022/12/10 10:30:26;;;;;;;30.67;18.50;;;4.20;93.60;;;;;;5092192;28;20574;-66
2022/12/10 10:32:57;;;;;;;34.25;18.75;;;4.20;93.50;;;;;;5092709;28;20189;-66
2022/12/10 10:35:30;;;;;;;29.38;19.05;;;4.20;93.60;;;;;;5092221;28;20188;-67
2022/12/10 10:38:00;;;;;;;34.42;19.13;;;4.30;93.70;;;;;;5092234;28;20216;-66
2022/12/10 10:40:31;;;;;;;31.67;19.10;;;4.30;93.50;;;;;;5092558;28;20222;-66
2022/12/10 10:43:01;;;;;;;31.02;17.75;;;4.30;93.20;;;;;;5092377;28;20671;-65
2022/12/10 10:45:37;;;;;;;31.38;19.38;;;4.30;93.30;;;;;;5092171;28;20193;-66
2022/12/10 10:48:13;;;;;;;34.53;18.50;;;4.30;93.10;;;;;;5092208;28;20237;-66
2022/12/10 10:50:46;;;;;;;31.60;17.83;;;4.40;93.00;;;;;;5091979;28;20238;-67
2022/12/10 10:53:30;;;;;;;30.55;19.33;;;4.30;92.80;;;;;;5092154;28;20561;-66
2022/12/10 10:56:08;;;;;;;27.05;16.55;;;4.30;93.00;;;;;;5092454;28;20185;-66
2022/12/10 10:58:45;;;;;;;27.88;17.88;;;4.30;93.00;;;;;;5092854;28;20246;-67
2022/12/10 11:01:13;;;;;;;25.77;15.50;;;4.40;93.00;;;;;;5093073;28;20245;-67
2022/12/10 11:03:48;;;;;;;27.55;16.42;;;4.40;92.90;;;;;;5109301;28;20244;-66
2022/12/10 11:06:17;;;;;;;32.40;19.65;;;4.40;92.90;;;;;;5112773;28;20188;-66
2022/12/10 11:08:47;;;;;;;31.85;21.10;;;4.40;92.70;;;;;;5112889;28;20192;-66
2022/12/10 11:11:23;;;;;;;31.40;19.30;;;4.40;92.90;;;;;;5112982;28;20223;-66
2022/12/10 11:13:53;;;;;;;35.10;19.80;;;4.40;92.90;;;;;;5108840;28;20199;-66
2022/12/10 11:16:23;;;;;;;37.67;21.10;;;4.40;92.90;;;;;;5092461;28;20189;-66
2022/12/10 11:18:57;;;;;;;40.45;22.65;;;4.40;93.00;;;;;;5092485;28;20201;-66
2022/12/10 11:21:25;;;;;;;37.35;20.00;;;4.50;92.90;;;;;;5092266;28;20188;-66
2022/12/10 11:23:55;;;;;;;31.52;18.70;;;4.50;92.60;;;;;;5092442;28;20344;-66
2022/12/10 11:26:44;;;;;;;35.53;20.52;;;4.50;92.50;;;;;;5092242;28;20262;-68
2022/12/10 11:29:29;;;;;;;38.83;23.05;;;4.50;92.40;;;;;;5089517;28;20651;-66
2022/12/10 11:32:10;;;;;;;33.83;20.50;;;4.50;92.40;;;;;;5092554;28;20181;-66
2022/12/10 11:34:52;;;;;;;33.85;17.63;;;4.50;92.20;;;;;;5092479;28;20295;-66
2022/12/10 11:37:29;;;;;;;29.90;18.10;;;4.50;92.10;;;;;;5092122;28;20196;-66
2022/12/10 11:40:18;;;;;;;31.38;18.20;;;4.50;92.00;;;;;;5092423;28;20670;-66
2022/12/10 11:42:59;;;;;;;29.42;18.13;;;4.40;91.90;;;;;;5092370;28;20229;-66
2022/12/10 11:45:31;;;;;;;29.67;18.42;;;4.50;92.10;;;;;;5092150;28;20193;-66
2022/12/10 11:48:13;;;;;;;30.75;17.52;;;4.50;92.20;;;;;;5092455;28;20186;-66
2022/12/10 11:50:46;;;;;;;28.20;17.70;;;4.50;92.20;;;;;;5092193;28;20212;-66
2022/12/10 11:53:43;;;;;;;27.02;16.25;;;4.40;92.00;;;;;;5092295;28;20186;-66
2022/12/10 11:56:19;;;;;;;26.88;17.42;;;4.40;92.20;;;;;;5088610;28;20272;-66
2022/12/10 11:59:05;;;;;;;26.92;18.67;;;4.40;92.20;;;;;;5092163;28;20195;-66
2022/12/10 12:01:47;;;;;;;31.45;19.33;;;4.40;92.10;;;;;;5091819;28;20192;-65
2022/12/10 12:04:26;;;;;;;30.27;18.40;;;4.50;92.20;;;;;;5091946;28;20220;-66
2022/12/10 12:07:33;;;;;;;29.80;19.25;;;4.40;92.20;;;;;;5092813;28;20195;-66
2022/12/10 12:10:20;;;;;;;26.48;16.27;;;4.40;92.30;;;;;;5081497;28;20304;-66
2022/12/10 12:12:53;;;;;;;24.38;16.02;;;4.40;92.30;;;;;;5095860;28;20216;-66
2022/12/10 12:15:28;;;;;;;26.70;16.98;;;4.40;92.30;;;;;;5095718;28;20242;-66
2022/12/10 12:18:03;;;;;;;31.00;19.08;;;4.50;92.00;;;;;;5095717;28;20196;-66
2022/12/10 12:20:34;;;;;;;29.15;17.25;;;4.40;92.00;;;;;;5095621;28;20280;-66
2022/12/10 12:23:12;;;;;;;26.95;18.58;;;4.40;92.10;;;;;;5095495;28;20659;-66
2022/12/10 12:25:47;;;;;;;29.58;17.63;;;4.50;92.20;;;;;;5095806;28;20181;-66
2022/12/10 12:28:22;;;;;;;24.25;16.15;;;4.50;91.90;;;;;;5095545;28;20189;-66
2022/12/10 12:30:57;;;;;;;31.25;18.85;;;4.40;91.80;;;;;;5095342;28;20311;-66
2022/12/10 12:36:18;;;;;;;25.73;16.40;;;4.30;91.70;;;;;;5094192;28;20221;-66
2022/12/10 12:38:53;;;;;;;25.55;17.25;;;4.30;91.90;;;;;;5094760;28;20189;-66
2022/12/10 12:41:31;;;;;;;25.13;16.42;;;4.30;91.80;;;;;;5094818;28;20275;-66
2022/12/10 12:44:04;;;;;;;22.27;15.52;;;4.30;91.80;;;;;;5093681;28;20193;-66
2022/12/10 12:46:38;;;;;;;24.70;17.42;;;4.30;91.90;;;;;;5114019;28;20276;-66
2022/12/10 12:49:18;;;;;;;27.60;16.75;;;4.30;91.80;;;;;;5094323;28;20231;-66
2022/12/10 12:51:50;;;;;;;26.85;17.23;;;4.30;91.90;;;;;;5108511;28;20204;-66
2022/12/10 12:54:17;;;;;;;27.45;17.38;;;4.30;91.90;;;;;;5100450;28;20241;-65
2022/12/10 12:57:00;;;;;;;26.48;17.45;;;4.30;91.80;;;;;;5115888;28;20643;-65
2022/12/10 12:59:53;;;;;;;27.45;17.92;;;4.30;91.80;;;;;;5115766;28;20224;-66
2022/12/10 13:02:37;;;;;;;22.10;14.63;;;4.20;91.80;;;;;;5115476;28;20196;-67
2022/12/10 13:05:13;;;;;;;29.42;16.75;;;4.20;92.00;;;;;;5112282;28;20212;-67
2022/12/10 13:07:40;;;;;;;24.58;16.00;;;4.20;91.80;;;;;;5115932;28;20274;-67